sensor_id;sensor_type;location;lat;lon;timestamp;P1;durP1;ratioP1;P2;durP2;ratioP2
7074;SDS011;3578;51.568;6.932;2022-12-05T00:00:15;33.20;;;24.33;;
7074;SDS011;3578;51.568;6.932;2022-12-05T00:02:44;34.30;;;24.40;;
7074;SDS011;3578;51.568;6.932;2022-12-05T00:05:12;34.90;;;26.03;;
7074;SDS011;3578;51.568;6.932;2022-12-05T00:07:41;37.80;;;26.27;;
7074;SDS011;3578;51.568;6.932;2022-12-05T00:10:09;36.23;;;25.00;;
7074;SDS011;3578;51.568;6.932;2022-12-05T00:12:37;36.27;;;24.40;;
7074;SDS011;3578;51.568;6.932;2022-12-05T00:15:06;39.70;;;26.80;;
7074;SDS011;3578;51.568;6.932;2022-12-05T00:17:37;38.73;;;25.03;;
7074;SDS011;3578;51.568;6.932;2022-12-05T00:20:09;38.10;;;24.70;;
7074;SDS011;3578;51.568;6.932;2022-12-05T00:22:37;37.33;;;25.93;;
7074;SDS011;3578;51.568;6.932;2022-12-05T00:25:06;36.77;;;26.00;;
7074;SDS011;3578;51.568;6.932;2022-12-05T00:27:34;36.00;;;25.47;;
7074;SDS011;3578;51.568;6.932;2022-12-05T00:30:02;40.87;;;26.33;;
7074;SDS011;3578;51.568;6.932;2022-12-05T00:32:32;35.07;;;26.33;;
7074;SDS011;3578;51.568;6.932;2022-12-05T00:35:00;36.40;;;26.53;;
7074;SDS011;3578;51.568;6.932;2022-12-05T00:37:29;38.80;;;27.43;;
7074;SDS011;3578;51.568;6.932;2022-12-05T00:39:57;36.87;;;27.10;;
7074;SDS011;3578;51.568;6.932;2022-12-05T00:42:25;36.87;;;26.67;;
7074;SDS011;3578;51.568;6.932;2022-12-05T00:44:52;33.83;;;26.17;;
7074;SDS011;3578;51.568;6.932;2022-12-05T00:47:19;40.20;;;26.00;;
7074;SDS011;3578;51.568;6.932;2022-12-05T00:49:46;36.50;;;27.23;;
7074;SDS011;3578;51.568;6.932;2022-12-05T00:52:13;39.03;;;27.03;;
7074;SDS011;3578;51.568;6.932;2022-12-05T00:54:40;36.43;;;27.00;;
7074;SDS011;3578;51.568;6.932;2022-12-05T00:57:07;35.60;;;27.37;;
7074;SDS011;3578;51.568;6.932;2022-12-05T00:59:35;38.30;;;27.50;;
7074;SDS011;3578;51.568;6.932;2022-12-05T01:02:03;37.77;;;27.30;;
7074;SDS011;3578;51.568;6.932;2022-12-05T01:04:30;38.90;;;27.50;;
7074;SDS011;3578;51.568;6.932;2022-12-05T01:06:57;35.37;;;27.23;;
7074;SDS011;3578;51.568;6.932;2022-12-05T01:09:24;37.00;;;27.33;;
7074;SDS011;3578;51.568;6.932;2022-12-05T01:11:52;39.73;;;27.00;;
7074;SDS011;3578;51.568;6.932;2022-12-05T01:14:20;41.97;;;28.57;;
7074;SDS011;3578;51.568;6.932;2022-12-05T01:16:53;41.83;;;29.30;;
7074;SDS011;3578;51.568;6.932;2022-12-05T01:19:22;37.30;;;27.63;;
7074;SDS011;3578;51.568;6.932;2022-12-05T01:21:53;40.63;;;29.00;;
7074;SDS011;3578;51.568;6.932;2022-12-05T01:24:21;38.97;;;27.77;;
7074;SDS011;3578;51.568;6.932;2022-12-05T01:26:50;38.60;;;28.50;;
7074;SDS011;3578;51.568;6.932;2022-12-05T01:29:18;36.03;;;27.50;;
7074;SDS011;3578;51.568;6.932;2022-12-05T01:31:47;38.50;;;26.73;;
7074;SDS011;3578;51.568;6.932;2022-12-05T01:34:16;40.63;;;28.23;;
7074;SDS011;3578;51.568;6.932;2022-12-05T01:36:44;37.87;;;26.30;;
7074;SDS011;3578;51.568;6.932;2022-12-05T01:39:12;41.27;;;28.80;;
7074;SDS011;3578;51.568;6.932;2022-12-05T01:41:41;38.43;;;28.07;;
7074;SDS011;3578;51.568;6.932;2022-12-05T01:47:30;37.93;;;26.47;;
7074;SDS011;3578;51.568;6.932;2022-12-05T01:50:02;39.80;;;27.40;;
7074;SDS011;3578;51.568;6.932;2022-12-05T01:52:31;40.80;;;27.07;;
7074;SDS011;3578;51.568;6.932;2022-12-05T01:55:02;41.40;;;28.33;;
7074;SDS011;3578;51.568;6.932;2022-12-05T01:57:35;38.90;;;27.50;;
7074;SDS011;3578;51.568;6.932;2022-12-05T02:00:05;38.17;;;26.93;;
7074;SDS011;3578;51.568;6.932;2022-12-05T02:02:36;35.87;;;25.53;;
7074;SDS011;3578;51.568;6.932;2022-12-05T02:05:08;36.53;;;26.20;;
7074;SDS011;3578;51.568;6.932;2022-12-05T02:07:40;41.60;;;27.53;;
7074;SDS011;3578;51.568;6.932;2022-12-05T02:10:09;34.17;;;23.97;;
7074;SDS011;3578;51.568;6.932;2022-12-05T02:12:36;32.30;;;24.43;;
7074;SDS011;3578;51.568;6.932;2022-12-05T02:15:26;41.50;;;28.07;;
7074;SDS011;3578;51.568;6.932;2022-12-05T02:18:06;36.57;;;25.83;;
7074;SDS011;3578;51.568;6.932;2022-12-05T02:21:05;39.37;;;26.97;;
7074;SDS011;3578;51.568;6.932;2022-12-05T02:24:01;38.90;;;26.87;;
7074;SDS011;3578;51.568;6.932;2022-12-05T02:26:55;35.47;;;25.07;;
7074;SDS011;3578;51.568;6.932;2022-12-05T02:32:33;36.70;;;23.60;;
7074;SDS011;3578;51.568;6.932;2022-12-05T02:35:15;41.43;;;26.93;;
7074;SDS011;3578;51.568;6.932;2022-12-05T02:37:56;37.20;;;26.23;;
7074;SDS011;3578;51.568;6.932;2022-12-05T02:40:40;40.33;;;26.43;;
7074;SDS011;3578;51.568;6.932;2022-12-05T02:43:16;39.77;;;26.60;;
7074;SDS011;3578;51.568;6.932;2022-12-05T02:45:49;39.77;;;25.17;;
7074;SDS011;3578;51.568;6.932;2022-12-05T02:48:21;35.43;;;24.80;;
7074;SDS011;3578;51.568;6.932;2022-12-05T02:50:51;35.30;;;23.37;;
7074;SDS011;3578;51.568;6.932;2022-12-05T02:53:22;33.50;;;23.37;;
7074;SDS011;3578;51.568;6.932;2022-12-05T02:55:52;39.53;;;24.77;;
7074;SDS011;3578;51.568;6.932;2022-12-05T02:58:22;33.37;;;23.93;;
7074;SDS011;3578;51.568;6.932;2022-12-05T03:00:57;32.40;;;22.40;;
7074;SDS011;3578;51.568;6.932;2022-12-05T03:03:24;30.77;;;23.00;;
7074;SDS011;3578;51.568;6.932;2022-12-05T03:05:54;31.57;;;23.03;;
7074;SDS011;3578;51.568;6.932;2022-12-05T03:08:28;33.80;;;23.63;;
7074;SDS011;3578;51.568;6.932;2022-12-05T03:11:00;33.57;;;23.13;;
7074;SDS011;3578;51.568;6.932;2022-12-05T03:13:30;35.20;;;24.80;;
7074;SDS011;3578;51.568;6.932;2022-12-05T03:16:06;31.90;;;23.33;;
7074;SDS011;3578;51.568;6.932;2022-12-05T03:18:38;29.63;;;21.37;;
7074;SDS011;3578;51.568;6.932;2022-12-05T03:21:14;30.97;;;23.50;;
7074;SDS011;3578;51.568;6.932;2022-12-05T03:23:51;31.60;;;22.30;;
7074;SDS011;3578;51.568;6.932;2022-12-05T03:26:27;30.73;;;21.80;;
7074;SDS011;3578;51.568;6.932;2022-12-05T03:29:12;32.17;;;22.03;;
7074;SDS011;3578;51.568;6.932;2022-12-05T03:31:51;30.40;;;21.27;;
7074;SDS011;3578;51.568;6.932;2022-12-05T03:34:33;28.23;;;21.90;;
7074;SDS011;3578;51.568;6.932;2022-12-05T03:37:24;32.40;;;22.50;;
7074;SDS011;3578;51.568;6.932;2022-12-05T03:40:22;33.03;;;22.70;;
7074;SDS011;3578;51.568;6.932;2022-12-05T03:42:59;29.93;;;22.50;;
7074;SDS011;3578;51.568;6.932;2022-12-05T03:45:36;31.00;;;23.20;;
7074;SDS011;3578;51.568;6.932;2022-12-05T03:48:12;28.87;;;22.80;;
7074;SDS011;3578;51.568;6.932;2022-12-05T03:50:47;30.63;;;22.43;;
7074;SDS011;3578;51.568;6.932;2022-12-05T03:53:18;31.90;;;21.57;;
7074;SDS011;3578;51.568;6.932;2022-12-05T03:55:53;32.03;;;21.80;;
7074;SDS011;3578;51.568;6.932;2022-12-05T03:58:25;31.00;;;21.50;;
7074;SDS011;3578;51.568;6.932;2022-12-05T04:00:57;31.17;;;23.20;;
7074;SDS011;3578;51.568;6.932;2022-12-05T04:03:29;27.60;;;20.80;;
7074;SDS011;3578;51.568;6.932;2022-12-05T04:06:04;26.57;;;19.77;;
7074;SDS011;3578;51.568;6.932;2022-12-05T04:08:38;28.20;;;21.50;;
7074;SDS011;3578;51.568;6.932;2022-12-05T04:11:11;27.40;;;21.70;;
7074;SDS011;3578;51.568;6.932;2022-12-05T04:13:43;30.90;;;21.67;;
7074;SDS011;3578;51.568;6.932;2022-12-05T04:16:15;28.33;;;20.40;;
7074;SDS011;3578;51.568;6.932;2022-12-05T04:19:08;36.13;;;22.23;;
7074;SDS011;3578;51.568;6.932;2022-12-05T04:21:42;29.20;;;23.00;;
7074;SDS011;3578;51.568;6.932;2022-12-05T04:24:12;30.10;;;22.33;;
7074;SDS011;3578;51.568;6.932;2022-12-05T04:27:11;32.10;;;22.90;;
7074;SDS011;3578;51.568;6.932;2022-12-05T04:29:51;29.47;;;23.13;;
7074;SDS011;3578;51.568;6.932;2022-12-05T04:32:26;28.00;;;20.67;;
7074;SDS011;3578;51.568;6.932;2022-12-05T04:35:05;33.50;;;22.13;;
7074;SDS011;3578;51.568;6.932;2022-12-05T04:37:39;31.40;;;23.53;;
7074;SDS011;3578;51.568;6.932;2022-12-05T04:40:11;32.37;;;22.90;;
7074;SDS011;3578;51.568;6.932;2022-12-05T04:42:44;29.73;;;21.80;;
7074;SDS011;3578;51.568;6.932;2022-12-05T04:45:14;38.00;;;21.70;;
7074;SDS011;3578;51.568;6.932;2022-12-05T04:47:45;32.00;;;22.00;;
7074;SDS011;3578;51.568;6.932;2022-12-05T04:50:18;30.83;;;20.90;;
7074;SDS011;3578;51.568;6.932;2022-12-05T04:52:48;28.37;;;21.60;;
7074;SDS011;3578;51.568;6.932;2022-12-05T04:55:20;28.40;;;20.57;;
7074;SDS011;3578;51.568;6.932;2022-12-05T04:57:52;26.93;;;21.40;;
7074;SDS011;3578;51.568;6.932;2022-12-05T05:00:28;25.33;;;19.73;;
7074;SDS011;3578;51.568;6.932;2022-12-05T05:02:59;29.10;;;21.57;;
7074;SDS011;3578;51.568;6.932;2022-12-05T05:05:34;25.73;;;19.97;;
7074;SDS011;3578;51.568;6.932;2022-12-05T05:08:03;29.03;;;19.53;;
7074;SDS011;3578;51.568;6.932;2022-12-05T05:10:31;26.60;;;21.10;;
7074;SDS011;3578;51.568;6.932;2022-12-05T05:13:02;24.93;;;19.87;;
7074;SDS011;3578;51.568;6.932;2022-12-05T05:15:29;27.00;;;19.70;;
7074;SDS011;3578;51.568;6.932;2022-12-05T05:17:56;27.77;;;20.23;;
7074;SDS011;3578;51.568;6.932;2022-12-05T05:20:23;27.10;;;21.50;;
7074;SDS011;3578;51.568;6.932;2022-12-05T05:22:52;25.73;;;20.17;;
7074;SDS011;3578;51.568;6.932;2022-12-05T05:25:21;25.90;;;19.67;;
7074;SDS011;3578;51.568;6.932;2022-12-05T05:27:49;27.20;;;21.10;;
7074;SDS011;3578;51.568;6.932;2022-12-05T05:30:18;28.13;;;21.20;;
7074;SDS011;3578;51.568;6.932;2022-12-05T05:32:46;29.10;;;20.03;;
7074;SDS011;3578;51.568;6.932;2022-12-05T05:35:13;30.57;;;20.00;;
7074;SDS011;3578;51.568;6.932;2022-12-05T05:37:41;25.90;;;20.60;;
7074;SDS011;3578;51.568;6.932;2022-12-05T05:40:11;28.83;;;19.53;;
7074;SDS011;3578;51.568;6.932;2022-12-05T05:42:40;28.20;;;19.67;;
7074;SDS011;3578;51.568;6.932;2022-12-05T05:45:09;32.23;;;19.00;;
7074;SDS011;3578;51.568;6.932;2022-12-05T05:47:37;27.30;;;20.07;;
7074;SDS011;3578;51.568;6.932;2022-12-05T05:50:05;27.30;;;21.23;;
7074;SDS011;3578;51.568;6.932;2022-12-05T05:52:33;27.60;;;20.23;;
7074;SDS011;3578;51.568;6.932;2022-12-05T05:55:02;27.73;;;20.50;;
7074;SDS011;3578;51.568;6.932;2022-12-05T05:57:33;24.07;;;19.27;;
7074;SDS011;3578;51.568;6.932;2022-12-05T06:00:00;28.47;;;21.40;;
7074;SDS011;3578;51.568;6.932;2022-12-05T06:02:30;30.10;;;20.73;;
7074;SDS011;3578;51.568;6.932;2022-12-05T06:04:58;26.23;;;20.50;;
7074;SDS011;3578;51.568;6.932;2022-12-05T06:07:26;27.27;;;20.23;;
7074;SDS011;3578;51.568;6.932;2022-12-05T06:09:53;26.77;;;19.57;;
7074;SDS011;3578;51.568;6.932;2022-12-05T06:12:20;26.47;;;19.37;;
7074;SDS011;3578;51.568;6.932;2022-12-05T06:14:48;26.57;;;20.20;;
7074;SDS011;3578;51.568;6.932;2022-12-05T06:17:16;21.30;;;17.00;;
7074;SDS011;3578;51.568;6.932;2022-12-05T06:19:43;23.03;;;18.60;;
7074;SDS011;3578;51.568;6.932;2022-12-05T06:22:10;19.53;;;16.20;;
7074;SDS011;3578;51.568;6.932;2022-12-05T06:24:37;23.83;;;18.13;;
7074;SDS011;3578;51.568;6.932;2022-12-05T06:27:04;20.17;;;15.13;;
7074;SDS011;3578;51.568;6.932;2022-12-05T06:29:32;25.90;;;17.87;;
7074;SDS011;3578;51.568;6.932;2022-12-05T06:32:00;22.63;;;17.33;;
7074;SDS011;3578;51.568;6.932;2022-12-05T06:34:28;19.90;;;15.70;;
7074;SDS011;3578;51.568;6.932;2022-12-05T06:36:56;17.40;;;15.13;;
7074;SDS011;3578;51.568;6.932;2022-12-05T06:39:24;26.47;;;17.10;;
7074;SDS011;3578;51.568;6.932;2022-12-05T06:41:51;21.47;;;16.80;;
7074;SDS011;3578;51.568;6.932;2022-12-05T06:44:18;22.97;;;17.73;;
7074;SDS011;3578;51.568;6.932;2022-12-05T06:46:45;20.97;;;17.67;;
7074;SDS011;3578;51.568;6.932;2022-12-05T06:49:14;23.67;;;17.90;;
7074;SDS011;3578;51.568;6.932;2022-12-05T06:51:41;20.50;;;18.00;;
7074;SDS011;3578;51.568;6.932;2022-12-05T06:54:09;21.97;;;17.60;;
7074;SDS011;3578;51.568;6.932;2022-12-05T06:56:37;24.17;;;19.17;;
7074;SDS011;3578;51.568;6.932;2022-12-05T06:59:04;26.40;;;17.47;;
7074;SDS011;3578;51.568;6.932;2022-12-05T07:01:31;22.70;;;18.30;;
7074;SDS011;3578;51.568;6.932;2022-12-05T07:04:03;21.00;;;16.53;;
7074;SDS011;3578;51.568;6.932;2022-12-05T07:06:34;23.60;;;17.97;;
7074;SDS011;3578;51.568;6.932;2022-12-05T07:09:02;23.00;;;18.03;;
7074;SDS011;3578;51.568;6.932;2022-12-05T07:11:30;22.07;;;18.03;;
7074;SDS011;3578;51.568;6.932;2022-12-05T07:13:57;21.97;;;17.20;;
7074;SDS011;3578;51.568;6.932;2022-12-05T07:16:24;22.03;;;17.17;;
7074;SDS011;3578;51.568;6.932;2022-12-05T07:18:51;20.27;;;16.93;;
7074;SDS011;3578;51.568;6.932;2022-12-05T07:21:18;20.90;;;16.73;;
7074;SDS011;3578;51.568;6.932;2022-12-05T07:23:47;18.00;;;15.40;;
7074;SDS011;3578;51.568;6.932;2022-12-05T07:26:16;17.17;;;15.37;;
7074;SDS011;3578;51.568;6.932;2022-12-05T07:28:45;22.03;;;16.63;;
7074;SDS011;3578;51.568;6.932;2022-12-05T07:31:13;20.00;;;16.30;;
7074;SDS011;3578;51.568;6.932;2022-12-05T07:33:42;19.23;;;15.83;;
7074;SDS011;3578;51.568;6.932;2022-12-05T07:36:10;17.07;;;15.27;;
7074;SDS011;3578;51.568;6.932;2022-12-05T07:38:40;19.60;;;14.80;;
7074;SDS011;3578;51.568;6.932;2022-12-05T07:41:10;19.20;;;15.63;;
7074;SDS011;3578;51.568;6.932;2022-12-05T07:43:44;19.80;;;15.20;;
7074;SDS011;3578;51.568;6.932;2022-12-05T07:46:11;18.57;;;15.23;;
7074;SDS011;3578;51.568;6.932;2022-12-05T07:48:38;23.13;;;15.63;;
7074;SDS011;3578;51.568;6.932;2022-12-05T07:51:06;22.07;;;15.33;;
7074;SDS011;3578;51.568;6.932;2022-12-05T07:53:35;20.37;;;15.43;;
7074;SDS011;3578;51.568;6.932;2022-12-05T07:56:03;20.40;;;15.10;;
7074;SDS011;3578;51.568;6.932;2022-12-05T07:58:34;18.37;;;15.63;;
7074;SDS011;3578;51.568;6.932;2022-12-05T08:01:05;21.83;;;16.60;;
7074;SDS011;3578;51.568;6.932;2022-12-05T08:03:33;19.60;;;16.73;;
7074;SDS011;3578;51.568;6.932;2022-12-05T08:06:02;17.47;;;15.23;;
7074;SDS011;3578;51.568;6.932;2022-12-05T08:08:30;24.23;;;16.13;;
7074;SDS011;3578;51.568;6.932;2022-12-05T08:11:01;19.30;;;15.93;;
7074;SDS011;3578;51.568;6.932;2022-12-05T08:13:29;25.47;;;17.07;;
7074;SDS011;3578;51.568;6.932;2022-12-05T08:16:00;28.20;;;16.37;;
7074;SDS011;3578;51.568;6.932;2022-12-05T08:18:28;21.53;;;15.90;;
7074;SDS011;3578;51.568;6.932;2022-12-05T08:20:59;24.90;;;16.63;;
7074;SDS011;3578;51.568;6.932;2022-12-05T08:23:28;19.27;;;14.90;;
7074;SDS011;3578;51.568;6.932;2022-12-05T08:25:55;22.37;;;16.30;;
7074;SDS011;3578;51.568;6.932;2022-12-05T08:28:26;19.37;;;15.23;;
7074;SDS011;3578;51.568;6.932;2022-12-05T08:30:54;21.63;;;14.97;;
7074;SDS011;3578;51.568;6.932;2022-12-05T08:33:22;20.30;;;15.30;;
7074;SDS011;3578;51.568;6.932;2022-12-05T08:35:49;21.67;;;15.73;;
7074;SDS011;3578;51.568;6.932;2022-12-05T08:38:16;19.83;;;15.30;;
7074;SDS011;3578;51.568;6.932;2022-12-05T08:40:43;21.30;;;15.97;;
7074;SDS011;3578;51.568;6.932;2022-12-05T08:43:11;21.00;;;15.00;;
7074;SDS011;3578;51.568;6.932;2022-12-05T08:45:38;18.43;;;14.73;;
7074;SDS011;3578;51.568;6.932;2022-12-05T08:48:05;21.03;;;16.50;;
7074;SDS011;3578;51.568;6.932;2022-12-05T08:50:33;19.50;;;15.60;;
7074;SDS011;3578;51.568;6.932;2022-12-05T08:53:03;17.93;;;15.13;;
7074;SDS011;3578;51.568;6.932;2022-12-05T08:55:32;23.90;;;16.60;;
7074;SDS011;3578;51.568;6.932;2022-12-05T08:57:59;20.10;;;16.47;;
7074;SDS011;3578;51.568;6.932;2022-12-05T09:00:26;17.63;;;14.63;;
7074;SDS011;3578;51.568;6.932;2022-12-05T09:02:53;18.60;;;15.17;;
7074;SDS011;3578;51.568;6.932;2022-12-05T09:05:20;20.67;;;16.20;;
7074;SDS011;3578;51.568;6.932;2022-12-05T09:07:49;21.10;;;15.77;;
7074;SDS011;3578;51.568;6.932;2022-12-05T09:10:16;26.27;;;15.90;;
7074;SDS011;3578;51.568;6.932;2022-12-05T09:12:43;19.70;;;16.00;;
7074;SDS011;3578;51.568;6.932;2022-12-05T09:15:10;20.20;;;16.87;;
7074;SDS011;3578;51.568;6.932;2022-12-05T09:17:38;21.70;;;16.40;;
7074;SDS011;3578;51.568;6.932;2022-12-05T09:20:05;19.63;;;15.60;;
7074;SDS011;3578;51.568;6.932;2022-12-05T09:22:35;17.20;;;14.90;;
7074;SDS011;3578;51.568;6.932;2022-12-05T09:25:04;20.90;;;16.60;;
7074;SDS011;3578;51.568;6.932;2022-12-05T09:27:32;20.40;;;16.63;;
7074;SDS011;3578;51.568;6.932;2022-12-05T09:29:59;19.07;;;15.47;;
7074;SDS011;3578;51.568;6.932;2022-12-05T09:32:26;17.20;;;15.23;;
7074;SDS011;3578;51.568;6.932;2022-12-05T09:34:53;22.97;;;16.70;;
7074;SDS011;3578;51.568;6.932;2022-12-05T09:37:20;20.07;;;16.50;;
7074;SDS011;3578;51.568;6.932;2022-12-05T09:39:47;16.90;;;15.10;;
7074;SDS011;3578;51.568;6.932;2022-12-05T09:42:19;19.10;;;16.17;;
7074;SDS011;3578;51.568;6.932;2022-12-05T09:45:22;18.93;;;15.40;;
7074;SDS011;3578;51.568;6.932;2022-12-05T09:47:58;23.63;;;16.43;;
7074;SDS011;3578;51.568;6.932;2022-12-05T09:50:30;22.50;;;16.27;;
7074;SDS011;3578;51.568;6.932;2022-12-05T09:53:06;21.37;;;15.87;;
7074;SDS011;3578;51.568;6.932;2022-12-05T09:55:41;16.90;;;15.10;;
7074;SDS011;3578;51.568;6.932;2022-12-05T09:58:26;16.73;;;14.60;;
7074;SDS011;3578;51.568;6.932;2022-12-05T10:01:07;21.13;;;14.83;;
7074;SDS011;3578;51.568;6.932;2022-12-05T10:03:56;24.13;;;17.17;;
7074;SDS011;3578;51.568;6.932;2022-12-05T10:06:48;17.67;;;15.13;;
7074;SDS011;3578;51.568;6.932;2022-12-05T10:09:27;17.50;;;14.70;;
7074;SDS011;3578;51.568;6.932;2022-12-05T10:12:13;19.50;;;15.90;;
7074;SDS011;3578;51.568;6.932;2022-12-05T10:14:55;16.60;;;14.40;;
7074;SDS011;3578;51.568;6.932;2022-12-05T10:17:30;19.30;;;16.70;;
7074;SDS011;3578;51.568;6.932;2022-12-05T10:20:02;21.80;;;15.63;;
7074;SDS011;3578;51.568;6.932;2022-12-05T10:22:38;22.10;;;17.37;;
7074;SDS011;3578;51.568;6.932;2022-12-05T10:25:11;20.00;;;16.40;;
7074;SDS011;3578;51.568;6.932;2022-12-05T10:27:44;21.60;;;16.43;;
7074;SDS011;3578;51.568;6.932;2022-12-05T10:30:18;21.60;;;17.60;;
7074;SDS011;3578;51.568;6.932;2022-12-05T10:32:49;24.93;;;19.67;;
7074;SDS011;3578;51.568;6.932;2022-12-05T10:35:20;24.50;;;19.03;;
7074;SDS011;3578;51.568;6.932;2022-12-05T10:37:50;24.90;;;19.93;;
7074;SDS011;3578;51.568;6.932;2022-12-05T10:40:19;24.17;;;18.90;;
7074;SDS011;3578;51.568;6.932;2022-12-05T10:42:47;24.97;;;19.53;;
7074;SDS011;3578;51.568;6.932;2022-12-05T10:45:16;26.40;;;20.83;;
7074;SDS011;3578;51.568;6.932;2022-12-05T10:47:47;26.50;;;20.87;;
7074;SDS011;3578;51.568;6.932;2022-12-05T10:50:22;26.37;;;20.30;;
7074;SDS011;3578;51.568;6.932;2022-12-05T10:52:54;23.23;;;19.20;;
7074;SDS011;3578;51.568;6.932;2022-12-05T10:55:25;29.40;;;20.50;;
7074;SDS011;3578;51.568;6.932;2022-12-05T10:58:08;27.10;;;21.70;;
7074;SDS011;3578;51.568;6.932;2022-12-05T11:00:39;26.60;;;21.23;;
7074;SDS011;3578;51.568;6.932;2022-12-05T11:03:19;46.20;;;37.20;;
7074;SDS011;3578;51.568;6.932;2022-12-05T11:05:51;32.80;;;26.33;;
7074;SDS011;3578;51.568;6.932;2022-12-05T11:08:21;39.20;;;32.03;;
7074;SDS011;3578;51.568;6.932;2022-12-05T11:10:57;47.87;;;30.40;;
7074;SDS011;3578;51.568;6.932;2022-12-05T11:13:28;33.60;;;26.57;;
7074;SDS011;3578;51.568;6.932;2022-12-05T11:15:56;23.20;;;18.13;;
7074;SDS011;3578;51.568;6.932;2022-12-05T11:18:26;26.20;;;20.17;;
7074;SDS011;3578;51.568;6.932;2022-12-05T11:20:56;21.20;;;17.97;;
7074;SDS011;3578;51.568;6.932;2022-12-05T11:23:36;20.13;;;16.90;;
7074;SDS011;3578;51.568;6.932;2022-12-05T11:26:05;20.90;;;18.37;;
7074;SDS011;3578;51.568;6.932;2022-12-05T11:28:44;29.30;;;21.97;;
7074;SDS011;3578;51.568;6.932;2022-12-05T11:31:24;20.23;;;17.00;;
7074;SDS011;3578;51.568;6.932;2022-12-05T11:34:00;19.33;;;17.30;;
7074;SDS011;3578;51.568;6.932;2022-12-05T11:36:41;19.47;;;16.13;;
7074;SDS011;3578;51.568;6.932;2022-12-05T11:39:13;20.97;;;17.40;;
7074;SDS011;3578;51.568;6.932;2022-12-05T11:41:46;20.03;;;17.27;;
7074;SDS011;3578;51.568;6.932;2022-12-05T11:44:34;20.77;;;16.50;;
7074;SDS011;3578;51.568;6.932;2022-12-05T11:47:30;15.90;;;13.50;;
7074;SDS011;3578;51.568;6.932;2022-12-05T11:50:23;16.50;;;14.80;;
7074;SDS011;3578;51.568;6.932;2022-12-05T11:53:09;16.63;;;14.47;;
7074;SDS011;3578;51.568;6.932;2022-12-05T11:55:56;18.00;;;14.03;;
7074;SDS011;3578;51.568;6.932;2022-12-05T11:58:47;16.23;;;14.57;;
7074;SDS011;3578;51.568;6.932;2022-12-05T12:01:32;16.57;;;13.57;;
7074;SDS011;3578;51.568;6.932;2022-12-05T12:04:18;14.43;;;12.87;;
7074;SDS011;3578;51.568;6.932;2022-12-05T12:07:15;13.80;;;12.50;;
7074;SDS011;3578;51.568;6.932;2022-12-05T12:10:13;15.13;;;13.53;;
7074;SDS011;3578;51.568;6.932;2022-12-05T12:12:53;14.93;;;13.23;;
7074;SDS011;3578;51.568;6.932;2022-12-05T12:15:40;17.97;;;15.50;;
7074;SDS011;3578;51.568;6.932;2022-12-05T12:18:30;17.60;;;15.80;;
7074;SDS011;3578;51.568;6.932;2022-12-05T12:21:39;18.60;;;16.60;;
7074;SDS011;3578;51.568;6.932;2022-12-05T12:24:23;18.80;;;16.80;;
7074;SDS011;3578;51.568;6.932;2022-12-05T12:27:02;18.53;;;16.67;;
7074;SDS011;3578;51.568;6.932;2022-12-05T12:29:45;18.03;;;16.10;;
7074;SDS011;3578;51.568;6.932;2022-12-05T12:32:29;22.13;;;18.60;;
7074;SDS011;3578;51.568;6.932;2022-12-05T12:35:14;23.17;;;18.77;;
7074;SDS011;3578;51.568;6.932;2022-12-05T12:37:55;19.30;;;16.77;;
7074;SDS011;3578;51.568;6.932;2022-12-05T12:40:47;16.70;;;14.90;;
7074;SDS011;3578;51.568;6.932;2022-12-05T12:43:27;18.47;;;15.70;;
7074;SDS011;3578;51.568;6.932;2022-12-05T12:46:14;20.80;;;14.47;;
7074;SDS011;3578;51.568;6.932;2022-12-05T12:49:03;17.27;;;15.67;;
7074;SDS011;3578;51.568;6.932;2022-12-05T12:51:47;17.63;;;14.70;;
7074;SDS011;3578;51.568;6.932;2022-12-05T12:54:22;16.90;;;15.17;;
7074;SDS011;3578;51.568;6.932;2022-12-05T12:57:10;16.10;;;14.40;;
7074;SDS011;3578;51.568;6.932;2022-12-05T12:59:50;15.70;;;14.07;;
7074;SDS011;3578;51.568;6.932;2022-12-05T13:02:30;25.17;;;17.57;;
7074;SDS011;3578;51.568;6.932;2022-12-05T13:05:05;19.40;;;17.33;;
7074;SDS011;3578;51.568;6.932;2022-12-05T13:07:46;23.60;;;20.70;;
7074;SDS011;3578;51.568;6.932;2022-12-05T13:10:22;81.87;;;50.93;;
7074;SDS011;3578;51.568;6.932;2022-12-05T13:12:54;126.07;;;74.27;;
7074;SDS011;3578;51.568;6.932;2022-12-05T13:15:27;77.10;;;50.10;;
7074;SDS011;3578;51.568;6.932;2022-12-05T13:17:59;93.97;;;53.60;;
7074;SDS011;3578;51.568;6.932;2022-12-05T13:20:31;42.87;;;28.10;;
7074;SDS011;3578;51.568;6.932;2022-12-05T13:23:01;36.87;;;24.23;;
7074;SDS011;3578;51.568;6.932;2022-12-05T13:25:33;43.90;;;32.40;;
7074;SDS011;3578;51.568;6.932;2022-12-05T13:28:04;53.63;;;38.13;;
7074;SDS011;3578;51.568;6.932;2022-12-05T13:30:48;74.90;;;47.07;;
7074;SDS011;3578;51.568;6.932;2022-12-05T13:33:31;58.17;;;38.83;;
7074;SDS011;3578;51.568;6.932;2022-12-05T13:36:05;35.53;;;26.43;;
7074;SDS011;3578;51.568;6.932;2022-12-05T13:38:57;17.70;;;15.17;;
7074;SDS011;3578;51.568;6.932;2022-12-05T13:41:45;30.63;;;23.27;;
7074;SDS011;3578;51.568;6.932;2022-12-05T13:44:34;22.73;;;18.20;;
7074;SDS011;3578;51.568;6.932;2022-12-05T13:47:05;17.37;;;14.37;;
7074;SDS011;3578;51.568;6.932;2022-12-05T13:49:47;16.57;;;14.13;;
7074;SDS011;3578;51.568;6.932;2022-12-05T13:52:20;16.53;;;14.20;;
7074;SDS011;3578;51.568;6.932;2022-12-05T13:54:52;16.20;;;14.30;;
7074;SDS011;3578;51.568;6.932;2022-12-05T14:00:20;17.63;;;13.60;;
7074;SDS011;3578;51.568;6.932;2022-12-05T14:02:58;16.53;;;14.10;;
7074;SDS011;3578;51.568;6.932;2022-12-05T14:05:44;16.37;;;14.47;;
7074;SDS011;3578;51.568;6.932;2022-12-05T14:11:29;14.13;;;11.90;;
7074;SDS011;3578;51.568;6.932;2022-12-05T14:13:57;11.00;;;10.00;;
7074;SDS011;3578;51.568;6.932;2022-12-05T14:25:29;11.00;;;9.90;;
7074;SDS011;3578;51.568;6.932;2022-12-05T14:28:12;11.67;;;10.47;;
7074;SDS011;3578;51.568;6.932;2022-12-05T14:31:04;10.40;;;9.47;;
7074;SDS011;3578;51.568;6.932;2022-12-05T14:34:02;11.90;;;10.80;;
7074;SDS011;3578;51.568;6.932;2022-12-05T14:36:39;11.83;;;10.73;;
7074;SDS011;3578;51.568;6.932;2022-12-05T14:39:26;11.80;;;10.67;;
7074;SDS011;3578;51.568;6.932;2022-12-05T14:42:14;14.43;;;12.90;;
7074;SDS011;3578;51.568;6.932;2022-12-05T14:44:48;13.20;;;11.90;;
7074;SDS011;3578;51.568;6.932;2022-12-05T14:47:20;13.50;;;12.20;;
7074;SDS011;3578;51.568;6.932;2022-12-05T14:49:53;13.60;;;12.30;;
7074;SDS011;3578;51.568;6.932;2022-12-05T14:52:28;14.83;;;13.37;;
7074;SDS011;3578;51.568;6.932;2022-12-05T14:55:00;14.17;;;12.97;;
7074;SDS011;3578;51.568;6.932;2022-12-05T14:57:34;13.60;;;12.30;;
7074;SDS011;3578;51.568;6.932;2022-12-05T15:00:13;14.03;;;12.60;;
7074;SDS011;3578;51.568;6.932;2022-12-05T15:02:47;12.83;;;11.63;;
7074;SDS011;3578;51.568;6.932;2022-12-05T15:05:21;14.90;;;13.60;;
7074;SDS011;3578;51.568;6.932;2022-12-05T15:07:51;13.77;;;12.23;;
7074;SDS011;3578;51.568;6.932;2022-12-05T15:10:20;14.40;;;13.00;;
7074;SDS011;3578;51.568;6.932;2022-12-05T15:12:53;13.47;;;12.20;;
7074;SDS011;3578;51.568;6.932;2022-12-05T15:15:24;13.03;;;11.77;;
7074;SDS011;3578;51.568;6.932;2022-12-05T15:18:07;12.43;;;11.23;;
7074;SDS011;3578;51.568;6.932;2022-12-05T15:20:44;13.90;;;12.60;;
7074;SDS011;3578;51.568;6.932;2022-12-05T15:23:40;13.93;;;12.43;;
7074;SDS011;3578;51.568;6.932;2022-12-05T15:26:17;13.63;;;11.67;;
7074;SDS011;3578;51.568;6.932;2022-12-05T15:28:58;16.13;;;12.97;;
7074;SDS011;3578;51.568;6.932;2022-12-05T15:31:28;13.90;;;12.60;;
7074;SDS011;3578;51.568;6.932;2022-12-05T15:34:02;15.17;;;13.07;;
7074;SDS011;3578;51.568;6.932;2022-12-05T15:36:39;13.00;;;11.80;;
7074;SDS011;3578;51.568;6.932;2022-12-05T15:39:16;11.30;;;10.30;;
7074;SDS011;3578;51.568;6.932;2022-12-05T15:41:49;12.50;;;11.23;;
7074;SDS011;3578;51.568;6.932;2022-12-05T15:44:17;11.07;;;10.07;;
7074;SDS011;3578;51.568;6.932;2022-12-05T15:46:50;12.07;;;10.37;;